createdAt,value
2022-11-15T00:01:16.754Z,100973.00
2022-11-15T00:04:03.391Z,100970.44
2022-11-15T00:06:49.631Z,100954.16
2022-11-15T00:09:44.884Z,100965.31
2022-11-15T00:12:33.734Z,100958.44
2022-11-15T00:15:26.155Z,100934.53
2022-11-15T00:18:16.560Z,100952.44
2022-11-15T00:21:08.590Z,100945.59
2022-11-15T00:23:57.311Z,100943.91
2022-11-15T00:26:43.878Z,100949.00
2022-11-15T00:29:30.146Z,100932.72
2022-11-15T00:32:16.195Z,100931.03
2022-11-15T00:35:02.638Z,100925.91
2022-11-15T00:37:49.176Z,100930.19
2022-11-15T00:40:35.946Z,100925.94
2022-11-15T00:43:22.452Z,100928.47
2022-11-15T00:46:09.756Z,100922.47
2022-11-15T00:48:55.761Z,100914.78
2022-11-15T00:51:44.579Z,100930.19
2022-11-15T00:54:30.739Z,100913.06
2022-11-15T00:57:16.832Z,100920.72
2022-11-15T01:00:03.061Z,100914.72
2022-11-15T01:02:49.324Z,100916.38
2022-11-15T01:05:47.676Z,100900.94
2022-11-15T01:08:34.018Z,100900.09
2022-11-15T01:11:20.383Z,100877.91
2022-11-15T01:14:06.995Z,100911.19
2022-11-15T01:16:56.515Z,100906.03
2022-11-15T01:19:42.805Z,100902.53
2022-11-15T01:22:29.174Z,100905.06
2022-11-15T01:25:15.589Z,100904.16
2022-11-15T01:28:01.902Z,100899.78
2022-11-15T01:30:48.493Z,100895.47
2022-11-15T01:33:39.511Z,100888.56
2022-11-15T01:36:25.669Z,100883.38
2022-11-15T01:39:35.762Z,100880.75
2022-11-15T01:42:21.934Z,100892.69
2022-11-15T01:45:16.268Z,100892.59
2022-11-15T01:48:02.542Z,100887.44
2022-11-15T01:50:50.440Z,100898.47
2022-11-15T01:53:40.396Z,100888.97
2022-11-15T01:56:31.425Z,100901.84
2022-11-15T01:59:17.649Z,100896.69
2022-11-15T02:02:04.088Z,100891.53
2022-11-15T02:04:50.393Z,100882.84
2022-11-15T02:07:37.599Z,100875.13
2022-11-15T02:10:25.645Z,100875.06
2022-11-15T02:13:12.320Z,100875.91
2022-11-15T02:16:28.573Z,100867.34
2022-11-15T02:19:30.425Z,100874.25
2022-11-15T02:22:25.814Z,100873.41
2022-11-15T02:25:40.588Z,100873.50
2022-11-15T02:28:43.594Z,100864.91
2022-11-15T02:31:47.468Z,100872.56
2022-11-15T02:34:56.369Z,100875.13
2022-11-15T02:37:57.205Z,100865.59
2022-11-15T02:40:52.590Z,100851.00
2022-11-15T02:43:59.058Z,100842.38
2022-11-15T02:47:15.288Z,100855.16
2022-11-15T02:50:11.336Z,100857.75
2022-11-15T02:52:58.468Z,100857.53
2022-11-15T02:55:48.251Z,100854.97
2022-11-15T02:59:02.857Z,100854.91
2022-11-15T03:02:06.278Z,100856.66
2022-11-15T03:05:11.366Z,100845.50
2022-11-15T03:08:32.900Z,100843.69
2022-11-15T03:11:21.183Z,100850.59
2022-11-15T03:14:21.485Z,100857.53
2022-11-15T03:17:14.935Z,100853.31
2022-11-15T03:20:05.371Z,100855.06
2022-11-15T03:22:54.246Z,100849.91
2022-11-15T03:25:47.394Z,100837.06
2022-11-15T03:28:38.366Z,100847.37
2022-11-15T03:31:50.083Z,100832.00
2022-11-15T03:34:48.213Z,100838.81
2022-11-15T03:37:47.266Z,100839.66
2022-11-15T03:40:42.163Z,100838.84
2022-11-15T03:43:54.687Z,100844.75
2022-11-15T03:46:58.112Z,100819.91
2022-11-15T03:49:48.610Z,100832.75
2022-11-15T03:52:36.212Z,100826.78
2022-11-15T03:55:22.708Z,100827.63
2022-11-15T03:58:09.305Z,100826.78
2022-11-15T04:00:55.426Z,100833.63
2022-11-15T04:03:44.973Z,100837.88
2022-11-15T04:06:35.434Z,100827.56
2022-11-15T04:09:21.675Z,100837.03
2022-11-15T04:12:08.078Z,100837.91
2022-11-15T04:15:09.090Z,100833.59
2022-11-15T04:17:57.049Z,100824.06
2022-11-15T04:21:01.854Z,100824.06
2022-11-15T04:24:09.682Z,100822.34
2022-11-15T04:26:59.365Z,100835.19
2022-11-15T04:29:45.295Z,100825.78
2022-11-15T04:32:32.629Z,100814.59
2022-11-15T04:35:18.850Z,100818.06
2022-11-15T04:38:07.455Z,100824.00
2022-11-15T04:40:53.904Z,100819.72
2022-11-15T04:43:43.472Z,100824.84
2022-11-15T04:46:29.917Z,100798.41
2022-11-15T04:49:16.349Z,100812.00
2022-11-15T04:52:02.629Z,100806.81
2022-11-15T04:54:48.743Z,100811.19
2022-11-15T04:57:34.934Z,100799.97
2022-11-15T05:00:21.155Z,100796.56
2022-11-15T05:03:29.977Z,100785.47
2022-11-15T05:06:16.151Z,100788.00
2022-11-15T05:09:02.361Z,100799.13
2022-11-15T05:11:49.115Z,100783.75
2022-11-15T05:14:35.266Z,100794.88
2022-11-15T05:17:21.410Z,100785.47
2022-11-15T05:20:08.253Z,100777.69
2022-11-15T05:22:57.488Z,100792.16
2022-11-15T05:25:44.055Z,100779.28
2022-11-15T05:28:34.077Z,100790.41
2022-11-15T05:31:20.638Z,100784.41
2022-11-15T05:34:07.428Z,100790.31
2022-11-15T05:36:56.877Z,100790.25
2022-11-15T05:39:45.856Z,100788.53
2022-11-15T05:42:32.356Z,100785.09
2022-11-15T05:45:23.899Z,100776.37
2022-11-15T05:48:13.570Z,100777.19
2022-11-15T05:51:00.694Z,100774.44
2022-11-15T05:53:47.829Z,100782.91
2022-11-15T05:56:34.312Z,100779.37
2022-11-15T05:59:21.093Z,100773.22
2022-11-15T06:02:07.582Z,100779.03
2022-11-15T06:04:56.678Z,100768.50
2022-11-15T06:07:42.797Z,100773.56
2022-11-15T06:10:28.741Z,100758.00
2022-11-15T06:13:14.955Z,100755.44
2022-11-15T06:16:01.387Z,100775.97
2022-11-15T06:18:47.784Z,100765.63
2022-11-15T06:21:33.943Z,100761.25
2022-11-15T06:24:20.335Z,100767.22
2022-11-15T06:27:06.872Z,100749.34
2022-11-15T06:29:53.160Z,100757.84
2022-11-15T06:32:39.475Z,100758.72
2022-11-15T06:35:26.080Z,100748.44
2022-11-15T06:38:12.897Z,100745.81
2022-11-15T06:41:07.762Z,100749.13
2022-11-15T06:43:54.068Z,100747.28
2022-11-15T06:46:40.869Z,100752.25
2022-11-15T06:49:30.200Z,100737.44
2022-11-15T06:52:16.512Z,100745.09
2022-11-15T06:55:02.798Z,100741.53
2022-11-15T06:57:53.699Z,100738.91
2022-11-15T07:00:40.372Z,100750.81
2022-11-15T07:03:26.654Z,100736.97
2022-11-15T07:06:13.291Z,100747.84
2022-11-15T07:08:59.865Z,100737.38
2022-11-15T07:11:46.311Z,100724.38
2022-11-15T07:14:35.736Z,100727.53
2022-11-15T07:17:21.964Z,100712.28
2022-11-15T07:20:08.738Z,100739.56
2022-11-15T07:23:04.848Z,100732.63
2022-11-15T07:25:50.792Z,100735.50
2022-11-15T07:28:41.229Z,100738.22
2022-11-15T07:31:30.191Z,100732.56
2022-11-15T07:34:19.627Z,100727.50
2022-11-15T07:37:05.531Z,100729.25
2022-11-15T07:39:51.495Z,100729.59
2022-11-15T07:42:57.395Z,100729.44
2022-11-15T07:45:46.384Z,100727.94
2022-11-15T07:48:43.416Z,100723.84
2022-11-15T07:51:31.573Z,100707.78
2022-11-15T07:54:23.998Z,100679.09
2022-11-15T07:57:11.338Z,100685.03
2022-11-15T07:59:57.511Z,100696.59
2022-11-15T08:02:43.763Z,100700.84
2022-11-15T08:05:33.375Z,100689.28
2022-11-15T08:08:46.056Z,100700.72
2022-11-15T08:11:35.223Z,100698.63
2022-11-15T08:14:24.708Z,100701.22
2022-11-15T08:17:11.619Z,100707.03
2022-11-15T08:19:59.326Z,100702.16
2022-11-15T08:23:04.550Z,100693.91
2022-11-15T08:25:52.586Z,100691.16
2022-11-15T08:28:39.137Z,100683.72
2022-11-15T08:31:34.829Z,100673.66
2022-11-15T08:34:20.947Z,100680.25
2022-11-15T08:37:07.735Z,100681.97
2022-11-15T08:39:54.256Z,100681.97
2022-11-15T08:42:40.690Z,100681.63
2022-11-15T08:45:27.294Z,100663.81
2022-11-15T08:48:13.605Z,100678.25
2022-11-15T08:51:02.668Z,100680.69
2022-11-15T08:53:51.678Z,100672.00
2022-11-15T08:56:38.024Z,100675.34
2022-11-15T08:59:27.869Z,100678.16
2022-11-15T09:02:16.012Z,100675.25
2022-11-15T09:05:02.115Z,100669.97
2022-11-15T09:07:55.905Z,100665.66
2022-11-15T09:10:42.503Z,100663.03
2022-11-15T09:13:28.904Z,100656.63
2022-11-15T09:16:16.522Z,100661.88
2022-11-15T09:19:05.404Z,100645.16
2022-11-15T09:21:54.190Z,100635.16
2022-11-15T09:24:40.380Z,100637.28
2022-11-15T09:27:30.618Z,100631.03
2022-11-15T09:30:19.506Z,100629.09
2022-11-15T09:33:14.949Z,100623.59
2022-11-15T09:36:03.043Z,100624.53
2022-11-15T09:38:49.352Z,100624.59
2022-11-15T09:41:48.444Z,100627.25
2022-11-15T09:44:56.978Z,100627.91
2022-11-15T09:48:29.342Z,100628.88
2022-11-15T09:51:03.494Z,100617.13
2022-11-15T09:54:18.607Z,100612.94
2022-11-15T09:56:32.990Z,100619.31
2022-11-15T09:59:10.657Z,100606.84
2022-11-15T10:01:45.902Z,100616.16
2022-11-15T10:04:15.821Z,100617.06
2022-11-15T10:07:02.903Z,100604.97
2022-11-15T10:09:40.055Z,100607.75
2022-11-15T10:12:10.356Z,100613.41
2022-11-15T10:14:38.646Z,100612.78
2022-11-15T10:17:41.710Z,100603.19
2022-11-15T10:20:23.325Z,100600.56
2022-11-15T10:23:02.267Z,100595.63
2022-11-15T10:25:32.650Z,100592.66
2022-11-15T10:28:24.665Z,100593.63
2022-11-15T10:30:58.653Z,100586.91
2022-11-15T10:33:42.145Z,100557.12
2022-11-15T10:36:10.395Z,100588.38
2022-11-15T10:38:54.175Z,100589.94
2022-11-15T10:41:28.591Z,100589.09
2022-11-15T10:44:12.484Z,100582.16
2022-11-15T10:46:47.745Z,100577.97
2022-11-15T10:49:20.202Z,100568.34
2022-11-15T10:51:54.707Z,100550.97
2022-11-15T10:54:53.731Z,100546.50
2022-11-15T10:57:34.233Z,100549.09
2022-11-15T11:00:21.226Z,100540.41
2022-11-15T11:03:34.648Z,100544.12
2022-11-15T11:06:10.590Z,100517.31
2022-11-15T11:08:53.902Z,100532.56
2022-11-15T11:11:21.688Z,100529.84
2022-11-15T11:13:49.944Z,100529.09
2022-11-15T11:16:41.869Z,100527.41
2022-11-15T11:19:25.529Z,100529.38
2022-11-15T11:22:29.790Z,100521.75
2022-11-15T11:25:18.343Z,100520.75
2022-11-15T11:27:55.715Z,100520.62
2022-11-15T11:30:33.749Z,100510.44
2022-11-15T11:33:10.361Z,100517.41
2022-11-15T11:36:01.514Z,100510.66
2022-11-15T11:38:56.287Z,100500.38
2022-11-15T11:41:40.750Z,100504.84
2022-11-15T11:44:23.110Z,100499.16
2022-11-15T11:47:05.674Z,100491.69
2022-11-15T11:49:55.531Z,100492.19
2022-11-15T11:52:28.373Z,100490.94
2022-11-15T11:55:21.725Z,100488.19
2022-11-15T11:58:00.110Z,100484.87
2022-11-15T12:00:29.844Z,100483.19
2022-11-15T12:03:21.302Z,100480.69
2022-11-15T12:06:01.296Z,100475.91
2022-11-15T12:08:41.805Z,100479.97
2022-11-15T12:11:24.529Z,100478.25
2022-11-15T12:14:01.565Z,100471.09
2022-11-15T12:16:32.252Z,100467.37
2022-11-15T12:19:03.976Z,100474.97
2022-11-15T12:21:31.749Z,100478.28
2022-11-15T12:24:10.048Z,100475.31
2022-11-15T12:26:51.583Z,100467.78
2022-11-15T12:29:29.857Z,100456.38
2022-11-15T12:32:02.087Z,100456.88
2022-11-15T12:34:29.783Z,100455.47
2022-11-15T12:36:57.689Z,100457.66
2022-11-15T12:40:04.292Z,100451.91
2022-11-15T12:42:32.643Z,100456.31
2022-11-15T12:45:01.035Z,100448.94
2022-11-15T12:47:31.654Z,100449.34
2022-11-15T12:49:59.759Z,100449.12
2022-11-15T12:52:27.985Z,100419.53
2022-11-15T12:54:58.896Z,100444.28
2022-11-15T12:57:30.545Z,100442.31
2022-11-15T13:00:08.151Z,100436.66
2022-11-15T13:02:46.826Z,100436.09
2022-11-15T13:05:17.474Z,100429.25
2022-11-15T13:07:45.854Z,100438.72
2022-11-15T13:10:31.038Z,100427.53
2022-11-15T13:13:10.019Z,100430.44
2022-11-15T13:15:57.918Z,100431.00
2022-11-15T13:18:41.915Z,100428.62
2022-11-15T13:21:41.210Z,100420.97
2022-11-15T13:24:15.082Z,100420.22
2022-11-15T13:26:43.453Z,100416.06
2022-11-15T13:29:18.523Z,100417.88
2022-11-15T13:31:47.731Z,100400.91
2022-11-15T13:37:22.160Z,100408.34
2022-11-15T13:39:51.191Z,100408.62
2022-11-15T13:42:21.125Z,100403.84
2022-11-15T13:45:00.283Z,100402.16
2022-11-15T13:47:30.265Z,100402.16
2022-11-15T13:50:09.616Z,100403.91
2022-11-15T13:52:44.765Z,100404.94
2022-11-15T13:55:20.300Z,100399.41
2022-11-15T13:57:55.410Z,100399.00
2022-11-15T14:00:35.896Z,100401.56
2022-11-15T14:03:16.135Z,100393.06
2022-11-15T14:05:44.457Z,100385.03
2022-11-15T14:08:21.721Z,100387.75
2022-11-15T14:10:49.550Z,100388.03
2022-11-15T14:13:30.783Z,100386.16
2022-11-15T14:16:21.904Z,100385.00
2022-11-15T14:18:53.054Z,100387.97
2022-11-15T14:21:22.077Z,100390.19
2022-11-15T14:23:54.027Z,100387.56
2022-11-15T14:26:34.408Z,100388.59
2022-11-15T14:29:25.396Z,100383.31
2022-11-15T14:31:54.296Z,100385.47
2022-11-15T14:34:23.520Z,100378.91
2022-11-15T14:36:51.433Z,100373.22
2022-11-15T14:39:19.569Z,100373.28
2022-11-15T14:41:47.804Z,100369.94
2022-11-15T14:44:19.837Z,100359.00
2022-11-15T14:46:49.410Z,100365.72
2022-11-15T14:49:20.192Z,100355.59
2022-11-15T14:51:48.481Z,100371.06
2022-11-15T14:54:18.705Z,100360.56
2022-11-15T14:56:46.700Z,100353.81
2022-11-15T14:59:15.238Z,100351.97
2022-11-15T15:01:45.091Z,100354.47
2022-11-15T15:04:23.864Z,100353.66
2022-11-15T15:06:52.006Z,100342.56
2022-11-15T15:09:19.986Z,100339.13
2022-11-15T15:11:48.101Z,100343.34
2022-11-15T15:14:19.455Z,100339.72
2022-11-15T15:17:03.930Z,100339.84
2022-11-15T15:19:35.184Z,100337.28
2022-11-15T15:22:03.066Z,100326.16
2022-11-15T15:24:30.977Z,100325.16
2022-11-15T15:27:02.517Z,100301.97
2022-11-15T15:29:30.392Z,100307.19
2022-11-15T15:31:58.271Z,100307.75
2022-11-15T15:34:26.697Z,100313.47
2022-11-15T15:37:24.247Z,100310.31
2022-11-15T15:39:56.599Z,100312.25
2022-11-15T15:42:25.028Z,100306.94
2022-11-15T15:44:53.649Z,100306.06
2022-11-15T15:47:24.027Z,100297.59
2022-11-15T15:49:52.170Z,100299.78
2022-11-15T15:52:20.621Z,100284.84
2022-11-15T15:54:48.619Z,100286.50
2022-11-15T15:57:16.660Z,100284.69
2022-11-15T15:59:44.836Z,100286.34
2022-11-15T16:02:16.187Z,100278.63
2022-11-15T16:04:44.432Z,100277.28
2022-11-15T16:07:22.593Z,100273.97
2022-11-15T16:10:03.821Z,100275.19
2022-11-15T16:12:36.394Z,100274.06
2022-11-15T16:15:05.227Z,100266.97
2022-11-15T16:17:42.269Z,100260.03
2022-11-15T16:20:22.295Z,100254.56
2022-11-15T16:22:50.269Z,100250.75
2022-11-15T16:25:21.725Z,100249.63
2022-11-15T16:27:49.958Z,100246.31
2022-11-15T16:30:21.099Z,100250.63
2022-11-15T16:32:49.569Z,100252.38
2022-11-15T16:35:18.935Z,100247.69
2022-11-15T16:37:47.693Z,100246.47
2022-11-15T16:40:30.394Z,100246.53
2022-11-15T16:43:03.248Z,100239.81
2022-11-15T16:45:32.192Z,100243.72
2022-11-15T16:48:00.661Z,100237.22
2022-11-15T16:50:31.761Z,100234.59
2022-11-15T16:53:00.297Z,100224.28
2022-11-15T16:55:30.899Z,100225.84
2022-11-15T16:57:59.015Z,100231.31
2022-11-15T17:00:27.767Z,100225.19
2022-11-15T17:03:00.428Z,100226.09
2022-11-15T17:05:28.674Z,100222.12
2022-11-15T17:07:57.035Z,100225.62
2022-11-15T17:10:26.603Z,100223.09
2022-11-15T17:12:56.273Z,100225.72
2022-11-15T17:15:25.695Z,100227.59
2022-11-15T17:17:54.849Z,100219.69
2022-11-15T17:20:24.744Z,100212.06
2022-11-15T17:22:53.584Z,100213.81
2022-11-15T17:25:21.702Z,100200.25
2022-11-15T17:27:50.420Z,100204.69
2022-11-15T17:30:20.479Z,100205.94
2022-11-15T17:32:50.434Z,100208.59
2022-11-15T17:35:20.570Z,100204.84
2022-11-15T17:37:49.021Z,100202.59
2022-11-15T17:40:21.067Z,100197.69
2022-11-15T17:42:49.666Z,100202.31
2022-11-15T17:45:18.369Z,100196.22
2022-11-15T17:47:50.059Z,100190.09
2022-11-15T17:50:24.616Z,100199.03
2022-11-15T17:52:53.162Z,100189.50
2022-11-15T17:55:22.346Z,100200.28
2022-11-15T17:57:50.196Z,100185.41
2022-11-15T18:00:21.231Z,100186.31
2022-11-15T18:02:52.550Z,100188.31
2022-11-15T18:05:20.586Z,100187.47
2022-11-15T18:07:48.410Z,100176.06
2022-11-15T18:10:16.909Z,100182.09
2022-11-15T18:12:44.900Z,100183.94
2022-11-15T18:15:12.729Z,100187.47
2022-11-15T18:17:41.089Z,100178.47
2022-11-15T18:20:10.389Z,100183.19
2022-11-15T18:22:41.278Z,100185.16
2022-11-15T18:25:09.792Z,100184.28
2022-11-15T18:27:38.618Z,100186.66
2022-11-15T18:30:10.232Z,100170.38
2022-11-15T18:32:38.604Z,100180.03
2022-11-15T18:35:07.134Z,100173.34
2022-11-15T18:37:37.994Z,100167.06
2022-11-15T18:40:06.960Z,100166.31
2022-11-15T18:42:41.757Z,100166.69
2022-11-15T18:45:11.305Z,100167.34
2022-11-15T18:47:39.343Z,100164.41
2022-11-15T18:50:07.866Z,100154.88
2022-11-15T18:52:36.550Z,100157.81
2022-11-15T18:55:04.747Z,100155.63
2022-11-15T18:57:33.033Z,100159.22
2022-11-15T19:00:01.393Z,100149.41
2022-11-15T19:02:31.498Z,100154.34
2022-11-15T19:04:59.436Z,100147.94
2022-11-15T19:07:28.115Z,100141.81
2022-11-15T19:09:56.516Z,100151.50
2022-11-15T19:12:27.282Z,100149.31
2022-11-15T19:14:55.685Z,100150.41
2022-11-15T19:17:23.505Z,100142.75
2022-11-15T19:19:54.766Z,100150.28
2022-11-15T19:22:23.093Z,100150.56
2022-11-15T19:24:51.225Z,100148.63
2022-11-15T19:27:19.534Z,100149.09
2022-11-15T19:29:47.923Z,100148.75
2022-11-15T19:32:16.146Z,100140.00
2022-11-15T19:34:44.291Z,100141.72
2022-11-15T19:37:12.725Z,100147.28
2022-11-15T19:39:41.418Z,100131.00
2022-11-15T19:42:09.639Z,100138.16
2022-11-15T19:44:38.609Z,100141.81
2022-11-15T19:47:09.557Z,100135.56
2022-11-15T19:49:38.793Z,100132.84
2022-11-15T19:52:07.355Z,100131.66
2022-11-15T19:54:35.357Z,100134.41
2022-11-15T19:57:03.645Z,100128.09
2022-11-15T19:59:31.311Z,100128.13
2022-11-15T20:01:59.093Z,100131.97
2022-11-15T20:04:27.350Z,100117.50
2022-11-15T20:06:55.240Z,100117.56
2022-11-15T20:09:23.028Z,100112.19
2022-11-15T20:11:51.160Z,100102.84
2022-11-15T20:14:18.844Z,100110.94
2022-11-15T20:16:50.126Z,100100.19
2022-11-15T20:19:21.278Z,100097.22
2022-11-15T20:21:49.498Z,100099.19
2022-11-15T20:24:17.295Z,100091.44
2022-11-15T20:26:47.155Z,100095.09
2022-11-15T20:29:14.995Z,100095.44
2022-11-15T20:31:42.771Z,100111.16
2022-11-15T20:34:11.902Z,100104.69
2022-11-15T20:39:26.040Z,100102.25
2022-11-15T20:41:53.940Z,100100.00
2022-11-15T20:44:22.020Z,100095.00
2022-11-15T20:46:50.065Z,100078.97
2022-11-15T20:49:20.746Z,100092.66
2022-11-15T20:51:48.746Z,100087.28
2022-11-15T20:54:24.720Z,100091.69
2022-11-15T20:56:52.546Z,100084.34
2022-11-15T20:59:23.924Z,100093.34
2022-11-15T21:01:51.801Z,100086.88
2022-11-15T21:04:20.406Z,100092.03
2022-11-15T21:06:49.032Z,100084.75
2022-11-15T21:09:35.705Z,100079.22
2022-11-15T21:12:16.392Z,100076.56
2022-11-15T21:14:49.483Z,100069.16
2022-11-15T21:17:17.866Z,100067.25
2022-11-15T21:19:47.578Z,100059.72
2022-11-15T21:22:16.089Z,100077.34
2022-11-15T21:24:44.272Z,100077.09
2022-11-15T21:27:12.418Z,100078.31
2022-11-15T21:29:40.232Z,100070.16
2022-11-15T21:32:09.660Z,100075.59
2022-11-15T21:34:41.912Z,100072.19
2022-11-15T21:37:16.185Z,100077.09
2022-11-15T21:39:47.741Z,100072.81
2022-11-15T21:42:19.116Z,100075.44
2022-11-15T21:44:47.486Z,100063.03
2022-11-15T21:47:15.501Z,100068.28
2022-11-15T21:49:43.735Z,100070.75
2022-11-15T21:52:11.590Z,100061.00
2022-11-15T21:54:44.785Z,100067.97
2022-11-15T21:57:13.899Z,100067.06
2022-11-15T22:00:02.166Z,100068.16
2022-11-15T22:02:32.536Z,100069.38
2022-11-15T22:05:01.395Z,100070.47
2022-11-15T22:07:30.544Z,100065.25
2022-11-15T22:09:59.188Z,100061.94
2022-11-15T22:12:29.818Z,100066.38
2022-11-15T22:14:57.832Z,100060.81
2022-11-15T22:17:46.099Z,100057.87
2022-11-15T22:20:42.914Z,100060.53
2022-11-15T22:23:05.618Z,100069.41
2022-11-15T22:25:36.890Z,100065.38
2022-11-15T22:28:04.993Z,100056.91
2022-11-15T22:30:33.388Z,100058.44
2022-11-15T22:33:01.419Z,100057.22
2022-11-15T22:35:34.130Z,100070.16
2022-11-15T22:38:02.467Z,100066.78
2022-11-15T22:40:30.375Z,100065.16
2022-11-15T22:43:00.611Z,100053.31
2022-11-15T22:45:29.264Z,100057.44
2022-11-15T22:47:57.284Z,100053.50
2022-11-15T22:50:28.261Z,100049.19
2022-11-15T22:52:56.649Z,100044.81
2022-11-15T22:55:24.652Z,100040.28
2022-11-15T22:57:52.731Z,100045.53
2022-11-15T23:00:21.118Z,100048.16
2022-11-15T23:02:53.227Z,100046.28
2022-11-15T23:05:23.528Z,100056.69
2022-11-15T23:07:56.044Z,100051.09
2022-11-15T23:10:50.437Z,100043.84
2022-11-15T23:17:26.904Z,100048.91
2022-11-15T23:19:54.883Z,100047.69
2022-11-15T23:22:44.316Z,100049.19
2022-11-15T23:25:12.246Z,100045.75
2022-11-15T23:27:40.625Z,100054.66
2022-11-15T23:30:27.589Z,100047.50
2022-11-15T23:33:14.953Z,100036.22
2022-11-15T23:35:42.855Z,100046.81
2022-11-15T23:38:11.260Z,100032.56
2022-11-15T23:40:39.099Z,100018.50
2022-11-15T23:43:06.998Z,100037.72
2022-11-15T23:45:38.473Z,100037.16
2022-11-15T23:48:06.746Z,100032.09
2022-11-15T23:50:34.992Z,100032.41
2022-11-15T23:53:04.042Z,100029.19
2022-11-15T23:55:35.159Z,100007.41
2022-11-15T23:58:03.428Z,100025.38
